Time;durP1;ratioP1;P1;durP2;ratioP2;P2;SDS_P1;SDS_P2;PMS_P1;PMS_P2;Temp;Humidity;BMP_temperature;BMP_pressure;BME280_temperature;BME280_humidity;BME280_pressure;Samples;Min_cycle;Max_cycle;Signal;HPM_P1;HPM_P2
2020/12/08 00:00:07;;;;;;;16.98;7.18;;;;;;;;;;2050704;28;20035;-69
2020/12/08 00:01:26;;;;;;;14.55;7.43;;;;;;;;;;2054807;28;20031;-68
2020/12/08 00:02:45;;;;;;;17.13;7.93;;;;;;;;;;2051346;28;20046;-69
2020/12/08 00:04:04;;;;;;;12.65;7.05;;;;;;;;;;2050631;28;20023;-69
2020/12/08 00:05:22;;;;;;;13.73;7.45;;;;;;;;;;2052906;28;20028;-69
2020/12/08 00:06:41;;;;;;;12.27;7.88;;;;;;;;;;2051304;28;20109;-69
2020/12/08 00:08:04;;;;;;;13.50;7.90;;;;;;;;;;2049771;28;20027;-68
2020/12/08 00:09:23;;;;;;;14.30;7.00;;;;;;;;;;2053620;28;20023;-69
2020/12/08 00:10:42;;;;;;;14.90;7.25;;;;;;;;;;2050346;28;20486;-68
2020/12/08 00:12:00;;;;;;;13.98;7.45;;;;;;;;;;2055451;28;20030;-70
2020/12/08 00:13:19;;;;;;;16.60;7.70;;;;;;;;;;2054975;28;20035;-69
2020/12/08 00:14:38;;;;;;;18.77;7.63;;;;;;;;;;2055610;28;20102;-69
2020/12/08 00:15:57;;;;;;;13.80;7.57;;;;;;;;;;2057427;28;20034;-69
2020/12/08 00:17:16;;;;;;;12.65;8.05;;;;;;;;;;2051025;28;20035;-69
2020/12/08 00:18:35;;;;;;;16.63;8.40;;;;;;;;;;2051397;28;20110;-69
2020/12/08 00:19:54;;;;;;;18.92;7.75;;;;;;;;;;2048528;28;20131;-69
2020/12/08 00:21:13;;;;;;;13.98;7.80;;;;;;;;;;2051942;28;20507;-69
2020/12/08 00:22:31;;;;;;;18.00;8.80;;;;;;;;;;2056884;28;20038;-69
2020/12/08 00:23:50;;;;;;;15.15;7.97;;;;;;;;;;2055505;28;20475;-69
2020/12/08 00:25:10;;;;;;;17.83;7.78;;;;;;;;;;2054592;28;20043;-68
2020/12/08 00:26:29;;;;;;;15.52;8.65;;;;;;;;;;2055691;28;20032;-69
2020/12/08 00:27:48;;;;;;;18.25;7.88;;;;;;;;;;2053630;28;20447;-68
2020/12/08 00:29:08;;;;;;;17.10;7.80;;;;;;;;;;2054139;28;20114;-69
2020/12/08 00:30:27;;;;;;;15.90;8.18;;;;;;;;;;2053366;28;20026;-68
2020/12/08 00:31:46;;;;;;;17.23;7.60;;;;;;;;;;2054745;28;20110;-69
2020/12/08 00:33:05;;;;;;;11.80;7.72;;;;;;;;;;2053498;28;20549;-69
2020/12/08 00:34:24;;;;;;;16.65;7.75;;;;;;;;;;2053370;28;20464;-69
2020/12/08 00:35:43;;;;;;;16.88;8.40;;;;;;;;;;2054081;28;20066;-69
2020/12/08 00:37:03;;;;;;;19.42;8.88;;;;;;;;;;2053120;28;20027;-69
2020/12/08 00:38:22;;;;;;;14.82;8.15;;;;;;;;;;2053915;28;20479;-68
2020/12/08 00:39:41;;;;;;;17.50;7.72;;;;;;;;;;2055032;28;20035;-69
2020/12/08 00:41:00;;;;;;;15.00;7.90;;;;;;;;;;2054866;28;20022;-68
2020/12/08 00:42:19;;;;;;;18.02;8.70;;;;;;;;;;2053942;28;20030;-69
2020/12/08 00:43:37;;;;;;;17.33;7.95;;;;;;;;;;2053215;28;20039;-68
2020/12/08 00:44:56;;;;;;;19.23;8.25;;;;;;;;;;2054305;28;20027;-70
2020/12/08 00:46:16;;;;;;;16.90;7.88;;;;;;;;;;2055497;28;20455;-69
2020/12/08 00:47:36;;;;;;;23.40;8.07;;;;;;;;;;2054895;28;20046;-70
2020/12/08 00:48:55;;;;;;;13.65;8.52;;;;;;;;;;2056938;28;20023;-69
2020/12/08 00:50:14;;;;;;;16.13;8.20;;;;;;;;;;2053594;28;20402;-69
2020/12/08 00:51:33;;;;;;;19.48;7.57;;;;;;;;;;2052342;28;20035;-69
2020/12/08 00:52:51;;;;;;;20.08;8.90;;;;;;;;;;2051284;28;20376;-69
2020/12/08 00:54:10;;;;;;;19.52;8.60;;;;;;;;;;2052442;28;20059;-70
2020/12/08 00:55:29;;;;;;;22.88;9.20;;;;;;;;;;2053282;28;20031;-69
2020/12/08 00:56:48;;;;;;;11.93;8.77;;;;;;;;;;2054923;28;20460;-69
2020/12/08 00:58:07;;;;;;;14.02;7.30;;;;;;;;;;2054839;28;20023;-69
2020/12/08 00:59:26;;;;;;;17.30;9.73;;;;;;;;;;2053838;28;20450;-69
2020/12/08 01:00:44;;;;;;;21.27;8.63;;;;;;;;;;2052512;28;20027;-69
2020/12/08 01:02:05;;;;;;;19.98;8.82;;;;;;;;;;2052827;28;20031;-69
2020/12/08 01:03:24;;;;;;;18.65;8.95;;;;;;;;;;2056479;28;20019;-70
2020/12/08 01:04:43;;;;;;;17.50;8.05;;;;;;;;;;2053380;28;20031;-70
2020/12/08 01:06:02;;;;;;;18.05;8.82;;;;;;;;;;2057283;28;20027;-70
2020/12/08 01:07:21;;;;;;;19.58;8.38;;;;;;;;;;2056641;28;20113;-69
2020/12/08 01:08:40;;;;;;;14.85;8.55;;;;;;;;;;2054203;28;20066;-69
2020/12/08 01:09:59;;;;;;;17.67;8.30;;;;;;;;;;2054774;28;20038;-70
2020/12/08 01:11:19;;;;;;;17.25;9.68;;;;;;;;;;2056545;28;20030;-69
2020/12/08 01:12:38;;;;;;;17.83;8.45;;;;;;;;;;2052849;28;20035;-70
2020/12/08 01:13:57;;;;;;;17.35;8.27;;;;;;;;;;2051479;28;20024;-69
2020/12/08 01:15:16;;;;;;;18.67;8.70;;;;;;;;;;2058297;28;20113;-69
2020/12/08 01:16:35;;;;;;;17.40;8.38;;;;;;;;;;2054779;28;20490;-70
2020/12/08 01:17:54;;;;;;;18.92;8.90;;;;;;;;;;2055121;28;20452;-70
2020/12/08 01:19:13;;;;;;;23.17;8.43;;;;;;;;;;2053610;28;20027;-70
2020/12/08 01:20:32;;;;;;;14.90;8.20;;;;;;;;;;2055775;28;20407;-70
2020/12/08 01:21:52;;;;;;;19.58;9.48;;;;;;;;;;2056751;28;20050;-70
2020/12/08 01:23:11;;;;;;;13.02;8.45;;;;;;;;;;2054294;28;20042;-70
2020/12/08 01:24:29;;;;;;;25.50;8.90;;;;;;;;;;2055893;28;20106;-69
2020/12/08 01:25:48;;;;;;;19.63;8.82;;;;;;;;;;2056318;28;20027;-69
2020/12/08 01:27:07;;;;;;;18.13;8.18;;;;;;;;;;2052616;28;20023;-70
2020/12/08 01:28:26;;;;;;;18.30;8.93;;;;;;;;;;2054437;28;20039;-70
2020/12/08 01:29:45;;;;;;;22.67;8.90;;;;;;;;;;2056853;28;20035;-70
2020/12/08 01:31:03;;;;;;;14.95;8.23;;;;;;;;;;2058210;28;20031;-69
2020/12/08 01:32:22;;;;;;;18.05;8.52;;;;;;;;;;2052946;28;20035;-70
2020/12/08 01:33:42;;;;;;;20.35;9.82;;;;;;;;;;2056470;28;20035;-69
2020/12/08 01:35:00;;;;;;;18.52;8.82;;;;;;;;;;2057823;28;20479;-69
2020/12/08 01:36:19;;;;;;;19.25;8.68;;;;;;;;;;2056503;28;20043;-69
2020/12/08 01:37:38;;;;;;;20.05;9.07;;;;;;;;;;2053962;28;20023;-69
2020/12/08 01:38:57;;;;;;;19.23;8.65;;;;;;;;;;2057720;28;20478;-70
2020/12/08 01:40:16;;;;;;;18.63;8.63;;;;;;;;;;2052160;28;20032;-69
2020/12/08 01:41:35;;;;;;;16.00;8.40;;;;;;;;;;2054677;28;20031;-69
2020/12/08 01:42:54;;;;;;;16.75;8.75;;;;;;;;;;2053717;28;20023;-70
2020/12/08 01:44:15;;;;;;;15.35;8.50;;;;;;;;;;2056437;28;20035;-69
2020/12/08 01:45:33;;;;;;;18.00;8.70;;;;;;;;;;2056359;28;20031;-70
2020/12/08 01:46:52;;;;;;;17.75;8.93;;;;;;;;;;2055780;28;20027;-69
2020/12/08 01:48:11;;;;;;;18.10;9.00;;;;;;;;;;2054636;28;20067;-70
2020/12/08 01:49:30;;;;;;;19.90;9.18;;;;;;;;;;2054798;28;20383;-69
2020/12/08 01:50:49;;;;;;;20.83;9.50;;;;;;;;;;2056783;28;20118;-69
2020/12/08 01:52:10;;;;;;;16.25;8.75;;;;;;;;;;2054054;28;20031;-68
2020/12/08 01:53:29;;;;;;;16.83;9.15;;;;;;;;;;2057031;28;20039;-70
2020/12/08 01:54:51;;;;;;;21.33;9.10;;;;;;;;;;2057128;28;20034;-70
2020/12/08 01:56:11;;;;;;;19.05;9.95;;;;;;;;;;2052780;28;20027;-69
2020/12/08 01:57:30;;;;;;;22.15;9.75;;;;;;;;;;2055773;28;20019;-70
2020/12/08 01:58:49;;;;;;;17.33;9.30;;;;;;;;;;2057422;28;20050;-70
2020/12/08 02:00:08;;;;;;;22.75;9.45;;;;;;;;;;2056740;28;20034;-70
2020/12/08 02:01:26;;;;;;;21.48;10.07;;;;;;;;;;2057560;28;20035;-70
2020/12/08 02:02:45;;;;;;;13.45;9.88;;;;;;;;;;2056901;28;20022;-69
2020/12/08 02:04:05;;;;;;;16.55;9.45;;;;;;;;;;2055310;28;20023;-69
2020/12/08 02:05:24;;;;;;;17.05;9.52;;;;;;;;;;2057619;28;20055;-68
2020/12/08 02:06:43;;;;;;;17.85;9.77;;;;;;;;;;2058005;28;20487;-69
2020/12/08 02:08:02;;;;;;;18.65;10.10;;;;;;;;;;2052340;28;20117;-69
2020/12/08 02:09:21;;;;;;;19.48;9.35;;;;;;;;;;2057269;28;20031;-69
2020/12/08 02:10:40;;;;;;;18.30;9.40;;;;;;;;;;2057683;28;20030;-69
2020/12/08 02:11:59;;;;;;;22.13;10.60;;;;;;;;;;2057401;28;20114;-70
2020/12/08 02:13:18;;;;;;;21.17;9.07;;;;;;;;;;2057088;28;20059;-69
2020/12/08 02:14:37;;;;;;;23.35;9.48;;;;;;;;;;2050500;28;20031;-69
2020/12/08 02:15:56;;;;;;;23.52;10.88;;;;;;;;;;2058283;28;20030;-69
2020/12/08 02:17:15;;;;;;;21.15;9.68;;;;;;;;;;2055590;28;20034;-69
2020/12/08 02:18:34;;;;;;;18.88;9.45;;;;;;;;;;2055749;28;20027;-69
2020/12/08 02:19:56;;;;;;;19.02;8.98;;;;;;;;;;2055159;28;20031;-69
2020/12/08 02:21:16;;;;;;;20.27;9.57;;;;;;;;;;2054957;28;20328;-69
2020/12/08 02:22:35;;;;;;;23.63;9.90;;;;;;;;;;2053001;28;20058;-68
2020/12/08 02:23:54;;;;;;;19.05;10.82;;;;;;;;;;2054884;28;20071;-69
2020/12/08 02:25:13;;;;;;;18.05;9.73;;;;;;;;;;2055991;28;20054;-67
2020/12/08 02:26:32;;;;;;;17.85;9.75;;;;;;;;;;2055248;28;20042;-67
2020/12/08 02:27:51;;;;;;;21.02;9.55;;;;;;;;;;2056551;28;20070;-68
2020/12/08 02:29:10;;;;;;;14.65;9.38;;;;;;;;;;2055850;28;20032;-68
2020/12/08 02:30:29;;;;;;;23.10;9.98;;;;;;;;;;2057484;28;20042;-68
2020/12/08 02:31:49;;;;;;;18.90;9.57;;;;;;;;;;2053010;28;20101;-67
2020/12/08 02:33:07;;;;;;;16.50;9.65;;;;;;;;;;2055102;28;20031;-69
2020/12/08 02:34:26;;;;;;;20.33;9.77;;;;;;;;;;2055276;28;20098;-68
2020/12/08 02:35:46;;;;;;;18.63;10.13;;;;;;;;;;2056193;28;20027;-68
2020/12/08 02:37:05;;;;;;;16.80;9.43;;;;;;;;;;2055891;28;20034;-68
2020/12/08 02:38:24;;;;;;;15.07;9.50;;;;;;;;;;2055728;28;20495;-68
2020/12/08 02:39:43;;;;;;;19.42;10.00;;;;;;;;;;2055443;28;20026;-68
2020/12/08 02:41:04;;;;;;;19.48;10.20;;;;;;;;;;2054930;28;20035;-69
2020/12/08 02:42:23;;;;;;;19.13;9.57;;;;;;;;;;2051264;28;20022;-69
2020/12/08 02:43:42;;;;;;;26.70;10.13;;;;;;;;;;2055522;28;20031;-68
2020/12/08 02:45:00;;;;;;;20.15;9.85;;;;;;;;;;2055385;28;20059;-68
2020/12/08 02:46:21;;;;;;;17.42;9.95;;;;;;;;;;2055661;28;20063;-68
2020/12/08 02:47:40;;;;;;;20.05;9.93;;;;;;;;;;2055229;28;20483;-68
2020/12/08 02:48:59;;;;;;;18.38;10.65;;;;;;;;;;2050018;28;20047;-68
2020/12/08 02:50:18;;;;;;;21.55;10.30;;;;;;;;;;2052914;28;20019;-68
2020/12/08 02:51:37;;;;;;;19.40;10.20;;;;;;;;;;2053882;28;20027;-68
2020/12/08 02:52:56;;;;;;;18.60;10.00;;;;;;;;;;2054657;28;20019;-68
2020/12/08 02:54:15;;;;;;;21.08;10.95;;;;;;;;;;2055655;28;20051;-68
2020/12/08 02:55:34;;;;;;;20.08;10.07;;;;;;;;;;2055313;28;20471;-68
2020/12/08 02:56:53;;;;;;;26.08;10.02;;;;;;;;;;2056536;28;20043;-69
2020/12/08 02:58:11;;;;;;;21.65;10.30;;;;;;;;;;2057312;28;20031;-69
2020/12/08 02:59:30;;;;;;;18.73;10.15;;;;;;;;;;2058041;28;20031;-69
2020/12/08 03:00:49;;;;;;;17.25;10.48;;;;;;;;;;2057118;28;20031;-68
2020/12/08 03:02:08;;;;;;;18.83;10.27;;;;;;;;;;2055874;28;20020;-68
2020/12/08 03:03:27;;;;;;;20.88;10.82;;;;;;;;;;2057115;28;20027;-68
2020/12/08 03:04:46;;;;;;;19.58;10.60;;;;;;;;;;2055418;28;20034;-68
2020/12/08 03:06:05;;;;;;;21.63;11.02;;;;;;;;;;2053584;28;20471;-69
2020/12/08 03:07:24;;;;;;;17.00;10.52;;;;;;;;;;2055154;28;20043;-69
2020/12/08 03:08:43;;;;;;;17.13;10.45;;;;;;;;;;2056648;28;20031;-68
2020/12/08 03:10:02;;;;;;;24.00;10.45;;;;;;;;;;2056593;28;20031;-69
2020/12/08 03:11:29;;;;;;;21.38;10.25;;;;;;;;;;2052586;28;20638;-69
2020/12/08 03:12:47;;;;;;;19.63;9.88;;;;;;;;;;2056151;28;20039;-69
2020/12/08 03:14:07;;;;;;;23.83;10.63;;;;;;;;;;2056415;28;20027;-69
2020/12/08 03:15:26;;;;;;;19.52;10.38;;;;;;;;;;2056016;28;20031;-69
2020/12/08 03:16:45;;;;;;;17.20;11.18;;;;;;;;;;2052267;28;20491;-69
2020/12/08 03:18:03;;;;;;;23.92;10.80;;;;;;;;;;2056860;28;20042;-69
2020/12/08 03:19:22;;;;;;;21.05;11.50;;;;;;;;;;2055852;28;20039;-69
2020/12/08 03:20:41;;;;;;;20.90;10.57;;;;;;;;;;2054756;28;20058;-69
2020/12/08 03:22:00;;;;;;;16.42;10.50;;;;;;;;;;2053822;28;20034;-69
2020/12/08 03:23:20;;;;;;;16.70;10.00;;;;;;;;;;2055938;28;20030;-69
2020/12/08 03:24:39;;;;;;;18.95;10.40;;;;;;;;;;2053988;28;20039;-69
2020/12/08 03:25:58;;;;;;;16.48;10.48;;;;;;;;;;2053215;28;20531;-69
2020/12/08 03:27:17;;;;;;;24.58;10.48;;;;;;;;;;2055028;28;20479;-68
2020/12/08 03:28:36;;;;;;;18.75;10.68;;;;;;;;;;2052456;28;20422;-69
2020/12/08 03:29:55;;;;;;;21.63;11.63;;;;;;;;;;2052165;28;20023;-69
2020/12/08 03:31:15;;;;;;;24.48;11.05;;;;;;;;;;2050879;28;20035;-69
2020/12/08 03:32:34;;;;;;;16.58;9.68;;;;;;;;;;2053247;28;20034;-68
2020/12/08 03:33:52;;;;;;;21.48;11.10;;;;;;;;;;2054564;28;20031;-68
2020/12/08 03:35:11;;;;;;;19.52;10.23;;;;;;;;;;2049774;28;20031;-69
2020/12/08 03:36:30;;;;;;;21.77;10.63;;;;;;;;;;2048452;28;20031;-68
2020/12/08 03:37:49;;;;;;;19.45;9.80;;;;;;;;;;2052073;28;20383;-68
2020/12/08 03:39:08;;;;;;;26.92;11.38;;;;;;;;;;2046734;28;20031;-69
2020/12/08 03:40:26;;;;;;;22.17;11.77;;;;;;;;;;2055186;28;20023;-69
2020/12/08 03:41:45;;;;;;;22.83;10.90;;;;;;;;;;2051274;28;20492;-68
2020/12/08 03:43:04;;;;;;;20.00;11.00;;;;;;;;;;2050483;28;20035;-69
2020/12/08 03:44:23;;;;;;;20.00;10.63;;;;;;;;;;2054980;28;20035;-69
2020/12/08 03:45:42;;;;;;;18.95;11.32;;;;;;;;;;2057427;28;20113;-69
2020/12/08 03:47:02;;;;;;;23.88;10.85;;;;;;;;;;2051233;28;20109;-68
2020/12/08 03:48:21;;;;;;;25.92;10.85;;;;;;;;;;2050719;28;20070;-69
2020/12/08 03:49:40;;;;;;;21.42;11.18;;;;;;;;;;2054990;28;20027;-69
2020/12/08 03:50:59;;;;;;;27.50;11.23;;;;;;;;;;2052166;28;20027;-69
2020/12/08 03:52:19;;;;;;;18.48;10.45;;;;;;;;;;2050296;28;20031;-68
2020/12/08 03:53:38;;;;;;;18.67;11.10;;;;;;;;;;2052093;28;20043;-69
2020/12/08 03:54:56;;;;;;;18.35;10.20;;;;;;;;;;2052683;28;20042;-69
2020/12/08 03:56:17;;;;;;;18.10;11.10;;;;;;;;;;2056412;28;20035;-66
2020/12/08 03:57:36;;;;;;;20.15;11.25;;;;;;;;;;2056447;28;20027;-67
2020/12/08 03:58:55;;;;;;;15.88;10.70;;;;;;;;;;2050579;28;20019;-68
2020/12/08 04:00:14;;;;;;;18.23;10.57;;;;;;;;;;2054246;28;20038;-68
2020/12/08 04:01:33;;;;;;;28.98;10.82;;;;;;;;;;2054439;28;20035;-68
2020/12/08 04:02:51;;;;;;;22.40;11.45;;;;;;;;;;2050395;28;20039;-68
2020/12/08 04:04:10;;;;;;;20.05;11.02;;;;;;;;;;2053095;28;20026;-69
2020/12/08 04:05:29;;;;;;;18.80;10.43;;;;;;;;;;2053700;28;20040;-68
2020/12/08 04:06:48;;;;;;;19.67;10.48;;;;;;;;;;2055132;28;20030;-68
2020/12/08 04:08:07;;;;;;;18.67;10.75;;;;;;;;;;2052842;28;20515;-67
2020/12/08 04:09:26;;;;;;;21.27;11.57;;;;;;;;;;2052695;28;20039;-67
2020/12/08 04:10:45;;;;;;;22.23;10.27;;;;;;;;;;2051641;28;20122;-68
2020/12/08 04:12:04;;;;;;;24.63;11.88;;;;;;;;;;2052019;28;20039;-67
2020/12/08 04:13:23;;;;;;;25.85;12.57;;;;;;;;;;2057651;28;20446;-68
2020/12/08 04:14:42;;;;;;;20.08;11.77;;;;;;;;;;2055418;28;20027;-67
2020/12/08 04:16:01;;;;;;;24.92;11.20;;;;;;;;;;2055329;28;20034;-68
2020/12/08 04:17:20;;;;;;;21.55;10.75;;;;;;;;;;2052450;28;20384;-67
2020/12/08 04:18:39;;;;;;;39.13;13.30;;;;;;;;;;2054022;28;20479;-67
2020/12/08 04:19:58;;;;;;;19.42;10.65;;;;;;;;;;2053614;28;20023;-68
2020/12/08 04:21:24;;;;;;;20.40;11.43;;;;;;;;;;2051253;28;20028;-68
2020/12/08 04:22:43;;;;;;;19.98;10.50;;;;;;;;;;2048383;28;20035;-68
2020/12/08 04:24:02;;;;;;;21.83;11.57;;;;;;;;;;2049196;28;20135;-67
2020/12/08 04:25:21;;;;;;;20.70;10.68;;;;;;;;;;2050699;28;20058;-67
2020/12/08 04:26:43;;;;;;;20.05;11.77;;;;;;;;;;2051496;28;20031;-68
2020/12/08 04:28:02;;;;;;;18.23;10.35;;;;;;;;;;2053174;28;20026;-68
2020/12/08 04:29:21;;;;;;;19.88;11.13;;;;;;;;;;2053826;28;20034;-68
2020/12/08 04:30:40;;;;;;;23.17;11.88;;;;;;;;;;2049882;28;20031;-69
2020/12/08 04:31:59;;;;;;;23.27;11.32;;;;;;;;;;2056836;28;20027;-69
2020/12/08 04:33:18;;;;;;;21.38;11.20;;;;;;;;;;2050984;28;20058;-69
2020/12/08 04:34:37;;;;;;;28.13;11.95;;;;;;;;;;2054140;28;20058;-69
2020/12/08 04:35:56;;;;;;;18.88;10.48;;;;;;;;;;2056419;28;20054;-70
2020/12/08 04:37:15;;;;;;;19.27;11.52;;;;;;;;;;2048116;28;20454;-70
2020/12/08 04:38:34;;;;;;;23.88;11.45;;;;;;;;;;2052581;28;20039;-69
2020/12/08 04:39:53;;;;;;;22.20;11.60;;;;;;;;;;2055188;28;20023;-69
2020/12/08 04:41:12;;;;;;;21.92;10.32;;;;;;;;;;2055118;28;20380;-69
2020/12/08 04:42:31;;;;;;;19.17;11.30;;;;;;;;;;2053183;28;20578;-70
2020/12/08 04:43:51;;;;;;;19.95;11.20;;;;;;;;;;2050171;28;20039;-69
2020/12/08 04:45:10;;;;;;;23.58;11.45;;;;;;;;;;2051824;28;20028;-69
2020/12/08 04:46:29;;;;;;;18.52;10.50;;;;;;;;;;2057747;28;20415;-69
2020/12/08 04:47:49;;;;;;;21.33;10.43;;;;;;;;;;2056896;28;20027;-69
2020/12/08 04:49:08;;;;;;;21.17;9.93;;;;;;;;;;2057632;28;20027;-69
2020/12/08 04:50:27;;;;;;;25.88;10.77;;;;;;;;;;2054099;28;20035;-69
2020/12/08 04:51:45;;;;;;;20.40;10.43;;;;;;;;;;2055541;28;20027;-69
2020/12/08 04:53:04;;;;;;;18.00;10.85;;;;;;;;;;2057409;28;20035;-69
2020/12/08 04:54:23;;;;;;;19.45;10.50;;;;;;;;;;2052518;28;20023;-70
2020/12/08 04:55:42;;;;;;;22.25;11.27;;;;;;;;;;2056811;28;20059;-69
2020/12/08 04:57:01;;;;;;;18.95;9.90;;;;;;;;;;2054051;28;20066;-68
2020/12/08 04:58:20;;;;;;;20.15;11.25;;;;;;;;;;2051532;28;20434;-68
2020/12/08 04:59:39;;;;;;;16.10;9.63;;;;;;;;;;2057711;28;20027;-69
2020/12/08 05:00:58;;;;;;;23.30;11.70;;;;;;;;;;2046947;28;20027;-66
2020/12/08 05:02:17;;;;;;;20.55;10.82;;;;;;;;;;2054862;28;20049;-67
2020/12/08 05:03:37;;;;;;;19.73;9.90;;;;;;;;;;2057184;28;20478;-67
2020/12/08 05:04:56;;;;;;;16.02;9.48;;;;;;;;;;2057374;28;20426;-68
2020/12/08 05:06:15;;;;;;;17.98;11.40;;;;;;;;;;2053679;28;20031;-68
2020/12/08 05:07:34;;;;;;;18.77;10.35;;;;;;;;;;2052762;28;20023;-68
2020/12/08 05:09:19;;;;;;;14.15;9.70;;;;;;;;;;2051412;28;20099;-68
2020/12/08 05:10:38;;;;;;;17.95;9.30;;;;;;;;;;2047846;28;20031;-67
2020/12/08 05:11:58;;;;;;;20.85;9.18;;;;;;;;;;2050704;28;20035;-67
2020/12/08 05:13:22;;;;;;;16.65;10.48;;;;;;;;;;2054090;28;20026;-69
2020/12/08 05:14:42;;;;;;;14.35;10.45;;;;;;;;;;2055996;28;20106;-69
2020/12/08 05:16:02;;;;;;;18.30;9.95;;;;;;;;;;2060206;28;20035;-68
2020/12/08 05:17:24;;;;;;;21.13;9.65;;;;;;;;;;2056271;28;20039;-66
2020/12/08 05:18:43;;;;;;;17.20;8.70;;;;;;;;;;2050087;28;20032;-69
2020/12/08 05:20:06;;;;;;;19.05;9.00;;;;;;;;;;2048283;28;20795;-70
2020/12/08 05:21:25;;;;;;;;;;;;;;;;;;2057164;28;20023;-67
2020/12/08 05:22:55;;;;;;;17.75;8.38;;;;;;;;;;2056050;28;19906;-68
2020/12/08 05:24:23;;;;;;;21.52;10.15;;;;;;;;;;2051051;28;20027;-68
2020/12/08 05:25:45;;;;;;;18.13;9.38;;;;;;;;;;2050886;28;20034;-68
2020/12/08 05:27:04;;;;;;;16.20;9.50;;;;;;;;;;2051121;28;20039;-67
2020/12/08 05:28:23;;;;;;;18.60;10.07;;;;;;;;;;2055643;28;20043;-70
2020/12/08 05:29:42;;;;;;;18.80;9.70;;;;;;;;;;2043587;28;20122;-69
2020/12/08 05:31:01;;;;;;;16.70;10.18;;;;;;;;;;2050289;28;20019;-70
2020/12/08 05:32:24;;;;;;;13.82;9.02;;;;;;;;;;2050716;28;20439;-69
2020/12/08 05:33:45;;;;;;;14.38;8.48;;;;;;;;;;2050849;28;20046;-69
2020/12/08 05:35:14;;;;;;;13.55;8.07;;;;;;;;;;2055818;28;20110;-69
2020/12/08 05:36:38;;;;;;;14.50;9.20;;;;;;;;;;2050156;28;20523;-67
2020/12/08 05:37:57;;;;;;;14.85;9.07;;;;;;;;;;2050717;28;20024;-69
2020/12/08 05:39:17;;;;;;;15.57;8.57;;;;;;;;;;2052824;28;20448;-69
2020/12/08 05:40:38;;;;;;;15.45;8.73;;;;;;;;;;2064085;28;20030;-69
2020/12/08 05:41:59;;;;;;;21.15;10.32;;;;;;;;;;2053413;28;20031;-69
2020/12/08 05:43:19;;;;;;;17.73;9.07;;;;;;;;;;2051483;28;20026;-69
2020/12/08 05:44:39;;;;;;;13.50;8.48;;;;;;;;;;2048660;28;20047;-71
2020/12/08 05:45:58;;;;;;;16.17;9.23;;;;;;;;;;2051952;28;20023;-69
2020/12/08 05:47:18;;;;;;;16.85;8.50;;;;;;;;;;2049742;28;20043;-68
2020/12/08 05:48:37;;;;;;;12.43;8.20;;;;;;;;;;2055271;28;20379;-69
2020/12/08 05:50:02;;;;;;;13.25;8.65;;;;;;;;;;2051079;28;20031;-69
2020/12/08 05:51:21;;;;;;;14.57;9.23;;;;;;;;;;2052746;28;20038;-69
2020/12/08 05:52:46;;;;;;;14.05;9.23;;;;;;;;;;2052429;28;20039;-69
2020/12/08 05:54:05;;;;;;;16.80;8.90;;;;;;;;;;2053492;28;20028;-69
2020/12/08 05:55:25;;;;;;;14.52;8.32;;;;;;;;;;2051978;28;20035;-69
2020/12/08 05:56:43;;;;;;;15.50;8.50;;;;;;;;;;2056204;28;20043;-70
2020/12/08 05:58:07;;;;;;;18.88;8.50;;;;;;;;;;2050623;28;20027;-69
2020/12/08 05:59:26;;;;;;;15.32;8.80;;;;;;;;;;2051374;28;20042;-69
2020/12/08 06:00:45;;;;;;;14.63;8.88;;;;;;;;;;2052058;28;20019;-69
2020/12/08 06:02:04;;;;;;;19.98;9.30;;;;;;;;;;2053917;28;20054;-69
2020/12/08 06:03:23;;;;;;;16.80;9.25;;;;;;;;;;2050737;28;20468;-69
2020/12/08 06:04:42;;;;;;;18.17;10.60;;;;;;;;;;2056168;28;20027;-68
2020/12/08 06:06:07;;;;;;;13.18;9.23;;;;;;;;;;2053687;28;20035;-69
2020/12/08 06:07:30;;;;;;;16.02;8.90;;;;;;;;;;2053860;28;20110;-69
2020/12/08 06:08:49;;;;;;;;;;;;;;;;;;2055392;28;20458;-70
2020/12/08 06:10:10;;;;;;;13.02;7.90;;;;;;;;;;2055576;28;19906;-70
2020/12/08 06:11:29;;;;;;;17.88;8.82;;;;;;;;;;2053948;28;20039;-69
2020/12/08 06:12:59;;;;;;;15.40;8.18;;;;;;;;;;2049985;28;20027;-69
2020/12/08 06:14:29;;;;;;;15.15;9.07;;;;;;;;;;2050066;28;20461;-69
2020/12/08 06:15:48;;;;;;;13.15;8.98;;;;;;;;;;2055143;28;20035;-69
2020/12/08 06:17:07;;;;;;;16.35;9.05;;;;;;;;;;2051774;28;20027;-70
2020/12/08 06:18:36;;;;;;;13.30;9.20;;;;;;;;;;2052674;28;20023;-70
2020/12/08 06:19:55;;;;;;;18.48;8.57;;;;;;;;;;2055812;28;20023;-69
2020/12/08 06:21:17;;;;;;;14.82;7.90;;;;;;;;;;2055971;28;20023;-70
2020/12/08 06:22:36;;;;;;;15.17;9.33;;;;;;;;;;2055637;28;20034;-70
2020/12/08 06:23:56;;;;;;;14.80;8.60;;;;;;;;;;2055704;28;20229;-70
2020/12/08 06:25:15;;;;;;;17.02;9.23;;;;;;;;;;2055388;28;20133;-70
2020/12/08 06:26:34;;;;;;;10.75;8.00;;;;;;;;;;2049840;28;20031;-69
2020/12/08 06:27:58;;;;;;;13.13;8.63;;;;;;;;;;2054264;28;20050;-68
2020/12/08 06:29:19;;;;;;;15.75;8.43;;;;;;;;;;2051627;28;20030;-68
2020/12/08 06:30:38;;;;;;;14.70;8.48;;;;;;;;;;2057165;28;20035;-68
2020/12/08 06:31:59;;;;;;;13.45;8.52;;;;;;;;;;2050629;28;20030;-68
2020/12/08 06:33:18;;;;;;;15.15;8.55;;;;;;;;;;2050516;28;20031;-68
2020/12/08 06:34:37;;;;;;;19.15;8.88;;;;;;;;;;2050426;28;20027;-69
2020/12/08 06:36:00;;;;;;;14.60;8.73;;;;;;;;;;2046675;28;20031;-69
2020/12/08 06:37:19;;;;;;;16.98;9.32;;;;;;;;;;2051731;28;20539;-68
2020/12/08 06:38:38;;;;;;;17.70;9.10;;;;;;;;;;2056716;28;20027;-68
2020/12/08 06:40:07;;;;;;;19.10;8.43;;;;;;;;;;2051655;28;20023;-68
2020/12/08 06:41:29;;;;;;;13.45;8.07;;;;;;;;;;2050539;28;20051;-68
2020/12/08 06:42:49;;;;;;;15.23;8.18;;;;;;;;;;2054627;28;20023;-68
2020/12/08 06:44:12;;;;;;;13.18;8.73;;;;;;;;;;2049005;28;20038;-68
2020/12/08 06:45:31;;;;;;;22.80;8.73;;;;;;;;;;2052558;28;20545;-68
2020/12/08 06:46:53;;;;;;;18.13;10.18;;;;;;;;;;2045886;28;20035;-68
2020/12/08 06:48:16;;;;;;;13.77;8.45;;;;;;;;;;2052376;28;20540;-68
2020/12/08 06:49:39;;;;;;;16.95;8.48;;;;;;;;;;2053008;28;20242;-68
2020/12/08 06:50:59;;;;;;;18.65;8.55;;;;;;;;;;2050509;28;20038;-69
2020/12/08 06:52:17;;;;;;;13.05;8.13;;;;;;;;;;2051147;28;20487;-68
2020/12/08 06:53:36;;;;;;;11.02;7.93;;;;;;;;;;2055091;28;20031;-68
2020/12/08 06:54:56;;;;;;;17.60;8.85;;;;;;;;;;2053700;28;20036;-70
2020/12/08 06:56:15;;;;;;;15.88;8.35;;;;;;;;;;2053941;28;20044;-68
2020/12/08 06:57:34;;;;;;;18.65;8.50;;;;;;;;;;2051227;28;20411;-70
2020/12/08 06:58:53;;;;;;;14.30;8.15;;;;;;;;;;2053176;28;20061;-69
2020/12/08 07:00:12;;;;;;;14.23;8.05;;;;;;;;;;2051923;28;20034;-69
2020/12/08 07:01:31;;;;;;;13.27;7.80;;;;;;;;;;2051147;28;20406;-69
2020/12/08 07:02:51;;;;;;;17.00;8.50;;;;;;;;;;2055092;28;20053;-69
2020/12/08 07:04:09;;;;;;;14.40;7.90;;;;;;;;;;2054869;28;20101;-69
2020/12/08 07:05:30;;;;;;;16.48;8.85;;;;;;;;;;2056651;28;20443;-69
2020/12/08 07:06:49;;;;;;;12.68;8.60;;;;;;;;;;2056773;28;20474;-69
2020/12/08 07:08:09;;;;;;;15.90;8.48;;;;;;;;;;2057560;28;20110;-68
2020/12/08 07:09:32;;;;;;;12.88;7.75;;;;;;;;;;2054615;28;20035;-69
2020/12/08 07:10:51;;;;;;;15.63;8.10;;;;;;;;;;2051819;28;20466;-68
2020/12/08 07:12:10;;;;;;;14.75;7.50;;;;;;;;;;2062137;28;20556;-68
2020/12/08 07:13:28;;;;;;;20.40;7.93;;;;;;;;;;2056945;28;20066;-68
2020/12/08 07:14:56;;;;;;;12.52;7.55;;;;;;;;;;2053249;28;20027;-68
2020/12/08 07:16:15;;;;;;;17.85;9.45;;;;;;;;;;2054293;28;20031;-68
2020/12/08 07:17:34;;;;;;;14.68;7.72;;;;;;;;;;2050957;28;20039;-68
2020/12/08 07:18:56;;;;;;;16.45;7.55;;;;;;;;;;2053513;28;20438;-69
2020/12/08 07:20:15;;;;;;;11.43;7.95;;;;;;;;;;2050860;28;20061;-68
2020/12/08 07:21:34;;;;;;;14.55;7.78;;;;;;;;;;2050225;28;20106;-68
2020/12/08 07:22:54;;;;;;;16.98;7.65;;;;;;;;;;2053348;28;20023;-68
2020/12/08 07:24:22;;;;;;;12.48;7.75;;;;;;;;;;2056327;28;20023;-68
2020/12/08 07:25:41;;;;;;;14.20;8.90;;;;;;;;;;2051020;28;20483;-68
2020/12/08 07:27:01;;;;;;;16.05;8.00;;;;;;;;;;2053162;28;20466;-68
2020/12/08 07:28:19;;;;;;;16.20;8.00;;;;;;;;;;2056371;28;20031;-68
2020/12/08 07:29:41;;;;;;;13.70;7.75;;;;;;;;;;2052534;28;20030;-68
2020/12/08 07:31:00;;;;;;;16.47;7.97;;;;;;;;;;2048763;28;20039;-69
2020/12/08 07:32:26;;;;;;;14.90;8.25;;;;;;;;;;2053027;28;20230;-68
2020/12/08 07:33:45;;;;;;;15.98;7.82;;;;;;;;;;2056644;28;20482;-69
2020/12/08 07:35:04;;;;;;;13.70;7.60;;;;;;;;;;2054730;28;20038;-68
2020/12/08 07:36:41;;;;;;;13.73;8.38;;;;;;;;;;2048422;28;20502;-69
2020/12/08 07:38:00;;;;;;;15.35;7.25;;;;;;;;;;2046798;28;20038;-69
2020/12/08 07:39:20;;;;;;;19.42;8.30;;;;;;;;;;2045057;28;20031;-68
2020/12/08 07:40:39;;;;;;;13.32;7.30;;;;;;;;;;2042903;28;20109;-70
2020/12/08 07:42:02;;;;;;;15.80;7.60;;;;;;;;;;2050929;28;20023;-68
2020/12/08 07:43:28;;;;;;;13.38;7.50;;;;;;;;;;2050790;28;20030;-69
2020/12/08 07:44:54;;;;;;;12.30;7.22;;;;;;;;;;2049065;28;20410;-68
2020/12/08 07:46:20;;;;;;;18.40;7.78;;;;;;;;;;2047402;28;20031;-68
2020/12/08 07:47:39;;;;;;;14.25;7.78;;;;;;;;;;2052008;28;20066;-68
2020/12/08 07:49:08;;;;;;;17.30;8.25;;;;;;;;;;2050325;28;20035;-68